Richey, MT (59259)

1:30 PM MDT on September 20, 2014 (GMT -0600)
SE Bloomfield | Change Station
CLOSE
Current Station
Personal Weather Station
Location: Bloomfield, MT
Elevation: 2753 ft
Nearby Weather Stations

Elev 2753 ft 47.36 °N, 104.79 °W | Updated 6 seconds ago

Clear
Clear
70.1 °F
Feels Like 77 °F
N
17.0
Wind Variable Wind from NW
Gusts 27.0 mph

Today
High -- | Low -- °F
--% Chance of Precip.
Yesterday
High -- | Low -- °F
Precip. -- in
6:44 AM 7:01 PM
Waning Crescent, 11% visible
Pressure 30.10 in
Visibility 10.0 miles
Clouds Clear
Heat Index 77 °F
Dew Point 43 °F
Humidity 37%
Rainfall 0.00 in
Snow Depth 0 in , 0 in , 0 in
UV 6 out of 12
Pollen 4.80 out of 12
Air Quality Not available.
Flu Activity Not available.
METAR KSDY 201915Z AUTO 32020G26KT 10SM CLR 22/05 A3010 RMK AO1

More Conditions Fewer Conditions

Pressure 30.10 in
Visibility 10.0 miles
Clouds Clear
Heat Index 77 °F
Dew Point 43 °F
Humidity 37%
Rainfall 0.00 in
Snow Depth 0 in , 0 in , 0 in
UV 6 out of 12
Pollen 4.80 out of 12
Air Quality Not available.
Flu Activity Not available.
METAR KSDY 201915Z AUTO 32020G26KT 10SM CLR 22/05 A3010 RMK AO1

More Conditions Fewer Conditions

10-Day Weather Forecast

Almanac

Astronomy

Sep. 20, 2014 Rise Set
Actual Time 6:44 AM MDT 7:01 PM MDT
Civil Twilight 6:13 AM MDT 7:32 PM MDT
Nautical Twilight 5:36 AM MDT 8:08 PM MDT
Astronomical Twilight 4:59 AM MDT 8:46 PM MDT
Moon 3:14 AM MDT 5:15 PM MDT
Length of Visible Light 13h 19m
Length of Day
12h 17m
Tomorrow will be 3m 25s shorter.
Waning Crescent, 11% of the Moon is Illuminated
Today
Waning Crescent
Sep 24
New
Oct 1
First Quarter
Oct 8
Full
Oct 15
Last Quarter

Today's Extremes

State Highs State Lows

Community

WunderPhotos

Upload Photos

1,754,925 photos uploaded!

WunderBlogs® & News

Nearby

Snow Depth

Station Depth Elevation
Fisher Creek 0 in 9100 ft
Emery Creek 0 in 4350 ft
Hoodoo Basin 0 in 6050 ft
Brackett Creek 0 in 7320 ft
Wood Creek 1 in 5960 ft

Earthquake Activity

City Distance Mag. Time & Date
No recent earthquake activity has been reported nearby.
Minimum magnitude displayed is 2.5.

Coastal Water Temperatures

Place Temperature
No Stations Reporting

Nearby Weather Stations